sensor_id;sensor_type;location;lat;lon;timestamp;P1;durP1;ratioP1;P2;durP2;ratioP2
63398;SDS011;49533;-34.520;150.798;2022-08-21T00:01:25;0.40;;;0.40;;
63398;SDS011;49533;-34.520;150.798;2022-08-21T00:03:54;0.68;;;0.60;;
63398;SDS011;49533;-34.520;150.798;2022-08-21T00:06:21;0.85;;;0.43;;
63398;SDS011;49533;-34.520;150.798;2022-08-21T00:08:50;0.93;;;0.75;;
63398;SDS011;49533;-34.520;150.798;2022-08-21T00:11:17;1.42;;;0.45;;
63398;SDS011;49533;-34.520;150.798;2022-08-21T00:13:44;0.77;;;0.30;;
63398;SDS011;49533;-34.520;150.798;2022-08-21T00:16:11;0.50;;;0.40;;
63398;SDS011;49533;-34.520;150.798;2022-08-21T00:18:39;0.68;;;0.35;;
63398;SDS011;49533;-34.520;150.798;2022-08-21T00:21:06;1.08;;;0.60;;
63398;SDS011;49533;-34.520;150.798;2022-08-21T00:23:34;0.60;;;0.43;;
63398;SDS011;49533;-34.520;150.798;2022-08-21T00:26:01;1.13;;;0.57;;
63398;SDS011;49533;-34.520;150.798;2022-08-21T00:28:29;1.55;;;0.57;;
63398;SDS011;49533;-34.520;150.798;2022-08-21T00:30:56;1.25;;;0.65;;
63398;SDS011;49533;-34.520;150.798;2022-08-21T00:33:23;0.85;;;0.25;;
63398;SDS011;49533;-34.520;150.798;2022-08-21T00:35:51;1.65;;;0.65;;
63398;SDS011;49533;-34.520;150.798;2022-08-21T00:38:18;1.25;;;0.55;;
63398;SDS011;49533;-34.520;150.798;2022-08-21T00:40:56;1.05;;;0.55;;
63398;SDS011;49533;-34.520;150.798;2022-08-21T00:43:27;0.80;;;0.40;;
63398;SDS011;49533;-34.520;150.798;2022-08-21T00:45:58;0.77;;;0.55;;
63398;SDS011;49533;-34.520;150.798;2022-08-21T00:48:26;0.63;;;0.55;;
63398;SDS011;49533;-34.520;150.798;2022-08-21T00:51:03;0.90;;;0.45;;
63398;SDS011;49533;-34.520;150.798;2022-08-21T00:53:32;1.92;;;0.73;;
63398;SDS011;49533;-34.520;150.798;2022-08-21T00:56:04;0.93;;;0.57;;
63398;SDS011;49533;-34.520;150.798;2022-08-21T00:58:33;2.38;;;0.55;;
63398;SDS011;49533;-34.520;150.798;2022-08-21T01:01:04;1.95;;;0.70;;
63398;SDS011;49533;-34.520;150.798;2022-08-21T01:03:32;6.10;;;1.38;;
63398;SDS011;49533;-34.520;150.798;2022-08-21T01:06:01;1.73;;;0.68;;
63398;SDS011;49533;-34.520;150.798;2022-08-21T01:08:29;5.13;;;0.75;;
63398;SDS011;49533;-34.520;150.798;2022-08-21T01:10:58;2.15;;;1.15;;
63398;SDS011;49533;-34.520;150.798;2022-08-21T01:13:27;1.45;;;0.60;;
63398;SDS011;49533;-34.520;150.798;2022-08-21T01:15:58;1.77;;;0.73;;
63398;SDS011;49533;-34.520;150.798;2022-08-21T01:18:27;0.60;;;0.50;;
63398;SDS011;49533;-34.520;150.798;2022-08-21T01:23:30;2.00;;;0.65;;
63398;SDS011;49533;-34.520;150.798;2022-08-21T01:25:58;1.10;;;0.47;;
63398;SDS011;49533;-34.520;150.798;2022-08-21T01:28:25;1.33;;;0.40;;
63398;SDS011;49533;-34.520;150.798;2022-08-21T01:30:55;0.80;;;0.40;;
63398;SDS011;49533;-34.520;150.798;2022-08-21T01:33:24;0.93;;;0.47;;
63398;SDS011;49533;-34.520;150.798;2022-08-21T01:35:51;2.53;;;0.40;;
63398;SDS011;49533;-34.520;150.798;2022-08-21T01:38:18;0.68;;;0.47;;
63398;SDS011;49533;-34.520;150.798;2022-08-21T01:40:45;0.55;;;0.28;;
63398;SDS011;49533;-34.520;150.798;2022-08-21T01:43:12;1.60;;;0.52;;
63398;SDS011;49533;-34.520;150.798;2022-08-21T01:45:39;1.00;;;0.65;;
63398;SDS011;49533;-34.520;150.798;2022-08-21T01:48:07;1.95;;;0.40;;
63398;SDS011;49533;-34.520;150.798;2022-08-21T01:50:34;1.60;;;0.38;;
63398;SDS011;49533;-34.520;150.798;2022-08-21T01:53:02;2.15;;;0.40;;
63398;SDS011;49533;-34.520;150.798;2022-08-21T01:55:29;0.55;;;0.30;;
63398;SDS011;49533;-34.520;150.798;2022-08-21T01:57:56;1.17;;;0.60;;
63398;SDS011;49533;-34.520;150.798;2022-08-21T02:00:25;1.98;;;0.73;;
63398;SDS011;49533;-34.520;150.798;2022-08-21T02:02:52;1.30;;;0.55;;
63398;SDS011;49533;-34.520;150.798;2022-08-21T02:05:19;1.08;;;0.40;;
63398;SDS011;49533;-34.520;150.798;2022-08-21T02:07:48;1.00;;;0.47;;
63398;SDS011;49533;-34.520;150.798;2022-08-21T02:10:19;1.85;;;0.80;;
63398;SDS011;49533;-34.520;150.798;2022-08-21T02:12:49;0.68;;;0.32;;
63398;SDS011;49533;-34.520;150.798;2022-08-21T02:15:16;2.00;;;0.40;;
63398;SDS011;49533;-34.520;150.798;2022-08-21T02:17:45;0.73;;;0.40;;
63398;SDS011;49533;-34.520;150.798;2022-08-21T02:20:20;3.63;;;0.50;;
63398;SDS011;49533;-34.520;150.798;2022-08-21T02:22:49;0.32;;;0.32;;
63398;SDS011;49533;-34.520;150.798;2022-08-21T02:25:17;1.27;;;0.73;;
63398;SDS011;49533;-34.520;150.798;2022-08-21T02:27:46;1.63;;;0.38;;
63398;SDS011;49533;-34.520;150.798;2022-08-21T02:30:15;0.47;;;0.20;;
63398;SDS011;49533;-34.520;150.798;2022-08-21T02:32:53;0.65;;;0.50;;
63398;SDS011;49533;-34.520;150.798;2022-08-21T02:35:21;0.57;;;0.30;;
63398;SDS011;49533;-34.520;150.798;2022-08-21T02:37:50;0.45;;;0.43;;
63398;SDS011;49533;-34.520;150.798;2022-08-21T02:40:20;0.85;;;0.40;;
63398;SDS011;49533;-34.520;150.798;2022-08-21T02:42:49;0.40;;;0.40;;
63398;SDS011;49533;-34.520;150.798;2022-08-21T02:45:17;0.75;;;0.35;;
63398;SDS011;49533;-34.520;150.798;2022-08-21T02:47:51;4.95;;;1.00;;
63398;SDS011;49533;-34.520;150.798;2022-08-21T02:50:21;2.55;;;0.63;;
63398;SDS011;49533;-34.520;150.798;2022-08-21T02:52:53;1.85;;;0.65;;
63398;SDS011;49533;-34.520;150.798;2022-08-21T02:55:22;2.95;;;0.60;;
63398;SDS011;49533;-34.520;150.798;2022-08-21T02:57:51;4.00;;;0.82;;
63398;SDS011;49533;-34.520;150.798;2022-08-21T03:00:20;1.55;;;0.60;;
63398;SDS011;49533;-34.520;150.798;2022-08-21T03:02:48;0.55;;;0.55;;
63398;SDS011;49533;-34.520;150.798;2022-08-21T03:05:16;3.28;;;0.70;;
63398;SDS011;49533;-34.520;150.798;2022-08-21T03:07:44;1.58;;;0.50;;
63398;SDS011;49533;-34.520;150.798;2022-08-21T03:10:12;1.05;;;0.60;;
63398;SDS011;49533;-34.520;150.798;2022-08-21T03:12:40;0.50;;;0.50;;
63398;SDS011;49533;-34.520;150.798;2022-08-21T03:15:09;2.35;;;0.73;;
63398;SDS011;49533;-34.520;150.798;2022-08-21T03:17:39;2.28;;;0.75;;
63398;SDS011;49533;-34.520;150.798;2022-08-21T03:20:06;3.00;;;0.85;;
63398;SDS011;49533;-34.520;150.798;2022-08-21T03:22:34;1.38;;;0.63;;
63398;SDS011;49533;-34.520;150.798;2022-08-21T03:25:02;1.10;;;0.63;;
63398;SDS011;49533;-34.520;150.798;2022-08-21T03:27:30;2.92;;;0.63;;
63398;SDS011;49533;-34.520;150.798;2022-08-21T03:29:57;1.55;;;0.50;;
63398;SDS011;49533;-34.520;150.798;2022-08-21T03:32:24;2.60;;;0.98;;
63398;SDS011;49533;-34.520;150.798;2022-08-21T03:34:51;1.75;;;0.60;;
63398;SDS011;49533;-34.520;150.798;2022-08-21T03:37:18;2.17;;;0.95;;
63398;SDS011;49533;-34.520;150.798;2022-08-21T03:39:45;0.88;;;0.70;;
63398;SDS011;49533;-34.520;150.798;2022-08-21T03:42:12;1.55;;;0.68;;
63398;SDS011;49533;-34.520;150.798;2022-08-21T03:44:39;2.75;;;0.88;;
63398;SDS011;49533;-34.520;150.798;2022-08-21T03:47:06;1.38;;;0.80;;
63398;SDS011;49533;-34.520;150.798;2022-08-21T03:49:35;2.90;;;0.70;;
63398;SDS011;49533;-34.520;150.798;2022-08-21T03:52:02;3.88;;;0.70;;
63398;SDS011;49533;-34.520;150.798;2022-08-21T03:54:30;2.28;;;0.82;;
63398;SDS011;49533;-34.520;150.798;2022-08-21T03:56:57;1.10;;;0.70;;
63398;SDS011;49533;-34.520;150.798;2022-08-21T03:59:24;2.70;;;0.90;;
63398;SDS011;49533;-34.520;150.798;2022-08-21T04:01:52;1.33;;;0.63;;
63398;SDS011;49533;-34.520;150.798;2022-08-21T04:04:25;3.65;;;0.95;;
63398;SDS011;49533;-34.520;150.798;2022-08-21T04:06:53;2.20;;;0.80;;
63398;SDS011;49533;-34.520;150.798;2022-08-21T04:09:21;1.83;;;0.68;;
63398;SDS011;49533;-34.520;150.798;2022-08-21T04:11:49;4.22;;;0.85;;
63398;SDS011;49533;-34.520;150.798;2022-08-21T04:14:16;0.80;;;0.50;;
63398;SDS011;49533;-34.520;150.798;2022-08-21T04:16:44;0.68;;;0.60;;
63398;SDS011;49533;-34.520;150.798;2022-08-21T04:19:11;4.43;;;0.57;;
63398;SDS011;49533;-34.520;150.798;2022-08-21T04:21:39;2.38;;;0.65;;
63398;SDS011;49533;-34.520;150.798;2022-08-21T04:24:07;2.38;;;0.60;;
63398;SDS011;49533;-34.520;150.798;2022-08-21T04:26:37;1.52;;;0.80;;
63398;SDS011;49533;-34.520;150.798;2022-08-21T04:29:05;0.88;;;0.60;;
63398;SDS011;49533;-34.520;150.798;2022-08-21T04:31:33;1.92;;;0.82;;
63398;SDS011;49533;-34.520;150.798;2022-08-21T04:34:04;1.08;;;0.98;;
63398;SDS011;49533;-34.520;150.798;2022-08-21T04:36:32;1.70;;;0.73;;
63398;SDS011;49533;-34.520;150.798;2022-08-21T04:38:59;1.42;;;0.60;;
63398;SDS011;49533;-34.520;150.798;2022-08-21T04:41:27;0.57;;;0.57;;
63398;SDS011;49533;-34.520;150.798;2022-08-21T04:43:54;1.13;;;0.60;;
63398;SDS011;49533;-34.520;150.798;2022-08-21T04:46:22;1.45;;;0.63;;
63398;SDS011;49533;-34.520;150.798;2022-08-21T04:48:49;1.20;;;0.52;;
63398;SDS011;49533;-34.520;150.798;2022-08-21T04:51:20;4.25;;;0.57;;
63398;SDS011;49533;-34.520;150.798;2022-08-21T04:54:06;0.45;;;0.43;;
63398;SDS011;49533;-34.520;150.798;2022-08-21T04:56:44;0.73;;;0.50;;
63398;SDS011;49533;-34.520;150.798;2022-08-21T04:59:22;2.20;;;0.63;;
63398;SDS011;49533;-34.520;150.798;2022-08-21T05:01:54;3.83;;;0.77;;
63398;SDS011;49533;-34.520;150.798;2022-08-21T05:04:22;1.50;;;0.55;;
63398;SDS011;49533;-34.520;150.798;2022-08-21T05:06:54;1.50;;;0.55;;
63398;SDS011;49533;-34.520;150.798;2022-08-21T05:09:25;3.38;;;0.68;;
63398;SDS011;49533;-34.520;150.798;2022-08-21T05:11:55;5.57;;;0.95;;
63398;SDS011;49533;-34.520;150.798;2022-08-21T05:14:23;1.40;;;0.80;;
63398;SDS011;49533;-34.520;150.798;2022-08-21T05:16:52;0.70;;;0.40;;
63398;SDS011;49533;-34.520;150.798;2022-08-21T05:19:19;1.13;;;0.50;;
63398;SDS011;49533;-34.520;150.798;2022-08-21T05:21:46;1.38;;;0.52;;
63398;SDS011;49533;-34.520;150.798;2022-08-21T05:24:14;1.85;;;0.70;;
63398;SDS011;49533;-34.520;150.798;2022-08-21T05:26:42;1.20;;;0.60;;
63398;SDS011;49533;-34.520;150.798;2022-08-21T05:29:10;1.90;;;0.60;;
63398;SDS011;49533;-34.520;150.798;2022-08-21T05:31:37;1.48;;;0.55;;
63398;SDS011;49533;-34.520;150.798;2022-08-21T05:34:05;0.95;;;0.50;;
63398;SDS011;49533;-34.520;150.798;2022-08-21T05:36:33;3.78;;;1.08;;
63398;SDS011;49533;-34.520;150.798;2022-08-21T05:39:01;1.65;;;0.70;;
63398;SDS011;49533;-34.520;150.798;2022-08-21T05:41:28;2.38;;;0.55;;
63398;SDS011;49533;-34.520;150.798;2022-08-21T05:43:55;5.05;;;0.75;;
63398;SDS011;49533;-34.520;150.798;2022-08-21T05:46:23;2.25;;;0.68;;
63398;SDS011;49533;-34.520;150.798;2022-08-21T05:48:50;0.50;;;0.40;;
63398;SDS011;49533;-34.520;150.798;2022-08-21T05:51:17;2.08;;;0.43;;
63398;SDS011;49533;-34.520;150.798;2022-08-21T05:53:44;1.90;;;0.95;;
63398;SDS011;49533;-34.520;150.798;2022-08-21T05:56:12;3.33;;;0.85;;
63398;SDS011;49533;-34.520;150.798;2022-08-21T05:58:40;1.80;;;0.85;;
63398;SDS011;49533;-34.520;150.798;2022-08-21T06:01:07;1.25;;;0.68;;
63398;SDS011;49533;-34.520;150.798;2022-08-21T06:03:36;1.63;;;1.00;;
63398;SDS011;49533;-34.520;150.798;2022-08-21T06:06:06;0.95;;;0.70;;
63398;SDS011;49533;-34.520;150.798;2022-08-21T06:08:33;0.90;;;0.60;;
63398;SDS011;49533;-34.520;150.798;2022-08-21T06:11:00;1.35;;;0.40;;
63398;SDS011;49533;-34.520;150.798;2022-08-21T06:13:29;2.80;;;0.60;;
63398;SDS011;49533;-34.520;150.798;2022-08-21T06:16:03;3.33;;;0.52;;
63398;SDS011;49533;-34.520;150.798;2022-08-21T06:18:38;0.88;;;0.52;;
63398;SDS011;49533;-34.520;150.798;2022-08-21T06:21:06;1.67;;;0.65;;
63398;SDS011;49533;-34.520;150.798;2022-08-21T06:23:34;1.45;;;0.77;;
63398;SDS011;49533;-34.520;150.798;2022-08-21T06:26:01;2.97;;;0.90;;
63398;SDS011;49533;-34.520;150.798;2022-08-21T06:28:30;2.15;;;0.88;;
63398;SDS011;49533;-34.520;150.798;2022-08-21T06:30:58;4.05;;;1.33;;
63398;SDS011;49533;-34.520;150.798;2022-08-21T06:33:25;2.05;;;0.60;;
63398;SDS011;49533;-34.520;150.798;2022-08-21T06:35:53;3.85;;;1.10;;
63398;SDS011;49533;-34.520;150.798;2022-08-21T06:38:20;2.00;;;0.90;;
63398;SDS011;49533;-34.520;150.798;2022-08-21T06:40:47;5.90;;;0.93;;
63398;SDS011;49533;-34.520;150.798;2022-08-21T06:43:15;2.97;;;0.60;;
63398;SDS011;49533;-34.520;150.798;2022-08-21T06:45:43;4.78;;;1.10;;
63398;SDS011;49533;-34.520;150.798;2022-08-21T06:48:10;4.68;;;1.25;;
63398;SDS011;49533;-34.520;150.798;2022-08-21T06:50:37;4.68;;;1.52;;
63398;SDS011;49533;-34.520;150.798;2022-08-21T06:53:06;3.22;;;0.90;;
63398;SDS011;49533;-34.520;150.798;2022-08-21T06:55:36;2.75;;;0.75;;
63398;SDS011;49533;-34.520;150.798;2022-08-21T06:58:04;2.47;;;1.10;;
63398;SDS011;49533;-34.520;150.798;2022-08-21T07:00:32;3.60;;;1.00;;
63398;SDS011;49533;-34.520;150.798;2022-08-21T07:02:59;3.33;;;1.48;;
63398;SDS011;49533;-34.520;150.798;2022-08-21T07:05:28;5.75;;;1.48;;
63398;SDS011;49533;-34.520;150.798;2022-08-21T07:07:56;4.95;;;1.40;;
63398;SDS011;49533;-34.520;150.798;2022-08-21T07:10:24;5.38;;;1.30;;
63398;SDS011;49533;-34.520;150.798;2022-08-21T07:12:52;4.75;;;1.20;;
63398;SDS011;49533;-34.520;150.798;2022-08-21T07:15:20;2.60;;;0.70;;
63398;SDS011;49533;-34.520;150.798;2022-08-21T07:17:47;1.88;;;1.23;;
63398;SDS011;49533;-34.520;150.798;2022-08-21T07:20:15;2.95;;;1.20;;
63398;SDS011;49533;-34.520;150.798;2022-08-21T07:22:42;4.85;;;1.30;;
63398;SDS011;49533;-34.520;150.798;2022-08-21T07:25:09;4.38;;;1.25;;
63398;SDS011;49533;-34.520;150.798;2022-08-21T07:27:37;9.65;;;1.58;;
63398;SDS011;49533;-34.520;150.798;2022-08-21T07:30:04;6.15;;;1.45;;
63398;SDS011;49533;-34.520;150.798;2022-08-21T07:32:32;9.23;;;1.52;;
63398;SDS011;49533;-34.520;150.798;2022-08-21T07:34:59;5.03;;;1.20;;
63398;SDS011;49533;-34.520;150.798;2022-08-21T07:37:26;2.85;;;1.10;;
63398;SDS011;49533;-34.520;150.798;2022-08-21T07:39:53;7.18;;;1.40;;
63398;SDS011;49533;-34.520;150.798;2022-08-21T07:42:20;2.17;;;1.20;;
63398;SDS011;49533;-34.520;150.798;2022-08-21T07:44:47;2.45;;;1.15;;
63398;SDS011;49533;-34.520;150.798;2022-08-21T07:47:14;2.63;;;1.15;;
63398;SDS011;49533;-34.520;150.798;2022-08-21T07:49:41;3.30;;;1.10;;
63398;SDS011;49533;-34.520;150.798;2022-08-21T07:52:08;3.83;;;1.52;;
63398;SDS011;49533;-34.520;150.798;2022-08-21T07:54:35;7.65;;;1.33;;
63398;SDS011;49533;-34.520;150.798;2022-08-21T07:57:05;3.05;;;1.17;;
63398;SDS011;49533;-34.520;150.798;2022-08-21T07:59:32;5.93;;;1.60;;
63398;SDS011;49533;-34.520;150.798;2022-08-21T08:01:59;2.55;;;1.50;;
63398;SDS011;49533;-34.520;150.798;2022-08-21T08:04:26;5.18;;;1.98;;
63398;SDS011;49533;-34.520;150.798;2022-08-21T08:06:53;2.58;;;1.60;;
63398;SDS011;49533;-34.520;150.798;2022-08-21T08:09:20;4.35;;;2.30;;
63398;SDS011;49533;-34.520;150.798;2022-08-21T08:11:47;6.03;;;2.42;;
63398;SDS011;49533;-34.520;150.798;2022-08-21T08:14:14;2.38;;;2.05;;
63398;SDS011;49533;-34.520;150.798;2022-08-21T08:16:41;4.22;;;2.10;;
63398;SDS011;49533;-34.520;150.798;2022-08-21T08:19:08;3.17;;;1.20;;
63398;SDS011;49533;-34.520;150.798;2022-08-21T08:21:35;4.45;;;1.25;;
63398;SDS011;49533;-34.520;150.798;2022-08-21T08:24:03;7.00;;;1.92;;
63398;SDS011;49533;-34.520;150.798;2022-08-21T08:26:30;2.08;;;1.00;;
63398;SDS011;49533;-34.520;150.798;2022-08-21T08:28:58;3.03;;;1.33;;
63398;SDS011;49533;-34.520;150.798;2022-08-21T08:31:25;6.25;;;1.10;;
63398;SDS011;49533;-34.520;150.798;2022-08-21T08:33:52;3.40;;;1.20;;
63398;SDS011;49533;-34.520;150.798;2022-08-21T08:36:19;2.28;;;0.80;;
63398;SDS011;49533;-34.520;150.798;2022-08-21T08:38:56;1.40;;;0.82;;
63398;SDS011;49533;-34.520;150.798;2022-08-21T08:41:23;4.47;;;1.33;;
63398;SDS011;49533;-34.520;150.798;2022-08-21T08:43:54;1.42;;;0.90;;
63398;SDS011;49533;-34.520;150.798;2022-08-21T08:46:30;2.50;;;0.98;;
63398;SDS011;49533;-34.520;150.798;2022-08-21T08:49:06;3.10;;;1.00;;
63398;SDS011;49533;-34.520;150.798;2022-08-21T08:51:38;7.07;;;1.10;;
63398;SDS011;49533;-34.520;150.798;2022-08-21T08:54:14;6.00;;;1.10;;
63398;SDS011;49533;-34.520;150.798;2022-08-21T08:56:46;2.80;;;1.10;;
63398;SDS011;49533;-34.520;150.798;2022-08-21T08:59:18;2.55;;;1.02;;
63398;SDS011;49533;-34.520;150.798;2022-08-21T09:01:49;3.78;;;1.27;;
63398;SDS011;49533;-34.520;150.798;2022-08-21T09:04:18;2.03;;;1.00;;
63398;SDS011;49533;-34.520;150.798;2022-08-21T09:07:12;8.27;;;2.03;;
63398;SDS011;49533;-34.520;150.798;2022-08-21T09:09:52;8.13;;;2.85;;
63398;SDS011;49533;-34.520;150.798;2022-08-21T09:23:59;6.70;;;1.42;;
63398;SDS011;49533;-34.520;150.798;2022-08-21T09:29:21;2.95;;;1.13;;
63398;SDS011;49533;-34.520;150.798;2022-08-21T09:31:55;6.35;;;1.33;;
63398;SDS011;49533;-34.520;150.798;2022-08-21T09:34:26;3.28;;;1.00;;
63398;SDS011;49533;-34.520;150.798;2022-08-21T09:36:55;3.00;;;0.97;;
63398;SDS011;49533;-34.520;150.798;2022-08-21T09:39:29;2.45;;;1.23;;
63398;SDS011;49533;-34.520;150.798;2022-08-21T09:42:00;2.50;;;1.10;;
63398;SDS011;49533;-34.520;150.798;2022-08-21T09:44:30;7.28;;;1.52;;
63398;SDS011;49533;-34.520;150.798;2022-08-21T09:47:01;5.05;;;1.38;;
63398;SDS011;49533;-34.520;150.798;2022-08-21T09:49:29;3.38;;;1.35;;
63398;SDS011;49533;-34.520;150.798;2022-08-21T09:51:58;5.53;;;2.03;;
63398;SDS011;49533;-34.520;150.798;2022-08-21T09:54:29;5.70;;;1.30;;
63398;SDS011;49533;-34.520;150.798;2022-08-21T09:57:01;1.70;;;1.35;;
63398;SDS011;49533;-34.520;150.798;2022-08-21T09:59:50;2.55;;;1.42;;
63398;SDS011;49533;-34.520;150.798;2022-08-21T10:07:30;4.00;;;1.63;;
63398;SDS011;49533;-34.520;150.798;2022-08-21T10:10:07;4.85;;;1.15;;
63398;SDS011;49533;-34.520;150.798;2022-08-21T10:18:20;5.63;;;1.60;;
63398;SDS011;49533;-34.520;150.798;2022-08-21T10:21:02;9.75;;;1.77;;
63398;SDS011;49533;-34.520;150.798;2022-08-21T10:23:47;1.33;;;1.10;;
63398;SDS011;49533;-34.520;150.798;2022-08-21T10:29:06;2.35;;;1.10;;
63398;SDS011;49533;-34.520;150.798;2022-08-21T10:31:39;4.05;;;1.38;;
63398;SDS011;49533;-34.520;150.798;2022-08-21T10:59:00;5.55;;;1.25;;
63398;SDS011;49533;-34.520;150.798;2022-08-21T11:04:48;3.67;;;1.20;;
63398;SDS011;49533;-34.520;150.798;2022-08-21T11:10:03;1.35;;;1.25;;
63398;SDS011;49533;-34.520;150.798;2022-08-21T11:12:48;1.83;;;1.08;;
63398;SDS011;49533;-34.520;150.798;2022-08-21T11:23:42;2.03;;;1.02;;
63398;SDS011;49533;-34.520;150.798;2022-08-21T11:26:22;2.40;;;1.02;;
63398;SDS011;49533;-34.520;150.798;2022-08-21T11:29:11;3.50;;;1.30;;
63398;SDS011;49533;-34.520;150.798;2022-08-21T11:37:34;2.08;;;1.33;;
63398;SDS011;49533;-34.520;150.798;2022-08-21T11:45:50;2.40;;;1.25;;
63398;SDS011;49533;-34.520;150.798;2022-08-21T11:51:21;1.55;;;0.85;;
63398;SDS011;49533;-34.520;150.798;2022-08-21T11:54:17;2.20;;;1.42;;
63398;SDS011;49533;-34.520;150.798;2022-08-21T11:56:48;5.00;;;2.13;;
63398;SDS011;49533;-34.520;150.798;2022-08-21T12:00:05;3.08;;;1.13;;
63398;SDS011;49533;-34.520;150.798;2022-08-21T12:02:20;2.85;;;1.20;;
63398;SDS011;49533;-34.520;150.798;2022-08-21T12:04:58;1.35;;;0.95;;
63398;SDS011;49533;-34.520;150.798;2022-08-21T12:07:40;1.67;;;1.20;;
63398;SDS011;49533;-34.520;150.798;2022-08-21T12:10:13;1.48;;;1.08;;
63398;SDS011;49533;-34.520;150.798;2022-08-21T12:12:46;3.10;;;1.20;;
63398;SDS011;49533;-34.520;150.798;2022-08-21T12:18:02;1.40;;;1.13;;
63398;SDS011;49533;-34.520;150.798;2022-08-21T12:20:45;1.73;;;1.08;;
63398;SDS011;49533;-34.520;150.798;2022-08-21T12:23:30;3.17;;;1.30;;
63398;SDS011;49533;-34.520;150.798;2022-08-21T12:26:24;1.88;;;1.27;;
63398;SDS011;49533;-34.520;150.798;2022-08-21T12:29:10;1.55;;;1.08;;
63398;SDS011;49533;-34.520;150.798;2022-08-21T12:31:59;1.95;;;1.30;;
63398;SDS011;49533;-34.520;150.798;2022-08-21T12:34:32;1.52;;;1.30;;
63398;SDS011;49533;-34.520;150.798;2022-08-21T12:37:04;1.92;;;1.45;;
63398;SDS011;49533;-34.520;150.798;2022-08-21T12:39:42;2.17;;;1.10;;
63398;SDS011;49533;-34.520;150.798;2022-08-21T12:42:16;1.00;;;0.98;;
63398;SDS011;49533;-34.520;150.798;2022-08-21T12:44:53;3.13;;;1.38;;
63398;SDS011;49533;-34.520;150.798;2022-08-21T12:50:26;1.65;;;1.17;;
63398;SDS011;49533;-34.520;150.798;2022-08-21T12:52:59;3.13;;;1.10;;
63398;SDS011;49533;-34.520;150.798;2022-08-21T12:55:35;4.05;;;1.35;;
63398;SDS011;49533;-34.520;150.798;2022-08-21T12:58:22;2.28;;;1.45;;
63398;SDS011;49533;-34.520;150.798;2022-08-21T13:00:52;3.95;;;1.80;;
63398;SDS011;49533;-34.520;150.798;2022-08-21T13:03:22;2.75;;;1.65;;
63398;SDS011;49533;-34.520;150.798;2022-08-21T13:05:50;1.90;;;1.38;;
63398;SDS011;49533;-34.520;150.798;2022-08-21T13:08:20;3.05;;;1.60;;
63398;SDS011;49533;-34.520;150.798;2022-08-21T13:10:49;2.30;;;1.10;;
63398;SDS011;49533;-34.520;150.798;2022-08-21T13:13:25;1.58;;;1.48;;
63398;SDS011;49533;-34.520;150.798;2022-08-21T13:16:00;2.15;;;1.48;;
63398;SDS011;49533;-34.520;150.798;2022-08-21T13:18:32;1.30;;;1.20;;
63398;SDS011;49533;-34.520;150.798;2022-08-21T13:21:04;3.65;;;1.88;;
63398;SDS011;49533;-34.520;150.798;2022-08-21T13:23:39;3.75;;;1.63;;
63398;SDS011;49533;-34.520;150.798;2022-08-21T13:26:14;1.88;;;1.60;;
63398;SDS011;49533;-34.520;150.798;2022-08-21T13:28:45;1.85;;;1.48;;
63398;SDS011;49533;-34.520;150.798;2022-08-21T13:31:20;2.83;;;1.65;;
63398;SDS011;49533;-34.520;150.798;2022-08-21T13:33:56;2.22;;;1.17;;
63398;SDS011;49533;-34.520;150.798;2022-08-21T13:36:27;3.97;;;1.73;;
63398;SDS011;49533;-34.520;150.798;2022-08-21T13:38:58;5.20;;;1.77;;
63398;SDS011;49533;-34.520;150.798;2022-08-21T13:41:31;2.25;;;1.60;;
63398;SDS011;49533;-34.520;150.798;2022-08-21T13:44:01;2.97;;;1.65;;
63398;SDS011;49533;-34.520;150.798;2022-08-21T13:46:33;2.50;;;1.70;;
63398;SDS011;49533;-34.520;150.798;2022-08-21T13:49:03;1.88;;;1.35;;
63398;SDS011;49533;-34.520;150.798;2022-08-21T13:51:32;2.20;;;1.17;;
63398;SDS011;49533;-34.520;150.798;2022-08-21T13:54:00;3.67;;;1.90;;
63398;SDS011;49533;-34.520;150.798;2022-08-21T13:56:29;2.50;;;1.45;;
63398;SDS011;49533;-34.520;150.798;2022-08-21T13:59:07;2.88;;;1.73;;
63398;SDS011;49533;-34.520;150.798;2022-08-21T14:01:36;2.00;;;1.73;;
63398;SDS011;49533;-34.520;150.798;2022-08-21T14:04:31;4.78;;;1.98;;
63398;SDS011;49533;-34.520;150.798;2022-08-21T14:07:02;2.95;;;1.85;;
63398;SDS011;49533;-34.520;150.798;2022-08-21T14:09:43;1.63;;;1.50;;
63398;SDS011;49533;-34.520;150.798;2022-08-21T14:12:31;2.72;;;1.85;;
63398;SDS011;49533;-34.520;150.798;2022-08-21T14:15:12;1.52;;;1.40;;
63398;SDS011;49533;-34.520;150.798;2022-08-21T14:17:42;2.50;;;1.50;;
63398;SDS011;49533;-34.520;150.798;2022-08-21T14:20:10;1.73;;;1.13;;
63398;SDS011;49533;-34.520;150.798;2022-08-21T14:22:51;2.38;;;1.45;;
63398;SDS011;49533;-34.520;150.798;2022-08-21T14:30:19;3.55;;;1.63;;
63398;SDS011;49533;-34.520;150.798;2022-08-21T14:32:52;8.25;;;1.83;;
63398;SDS011;49533;-34.520;150.798;2022-08-21T14:35:19;3.53;;;1.90;;
63398;SDS011;49533;-34.520;150.798;2022-08-21T14:37:47;2.50;;;1.45;;
63398;SDS011;49533;-34.520;150.798;2022-08-21T14:40:18;3.20;;;1.77;;
63398;SDS011;49533;-34.520;150.798;2022-08-21T14:42:47;3.97;;;2.00;;
63398;SDS011;49533;-34.520;150.798;2022-08-21T14:45:19;2.58;;;1.50;;
63398;SDS011;49533;-34.520;150.798;2022-08-21T14:47:52;2.97;;;2.00;;
63398;SDS011;49533;-34.520;150.798;2022-08-21T14:50:19;3.13;;;1.92;;
63398;SDS011;49533;-34.520;150.798;2022-08-21T14:52:47;3.15;;;1.80;;
63398;SDS011;49533;-34.520;150.798;2022-08-21T14:55:14;3.15;;;1.73;;
63398;SDS011;49533;-34.520;150.798;2022-08-21T14:57:53;4.22;;;1.67;;
63398;SDS011;49533;-34.520;150.798;2022-08-21T15:00:22;4.20;;;1.92;;
63398;SDS011;49533;-34.520;150.798;2022-08-21T15:02:51;2.72;;;1.50;;
63398;SDS011;49533;-34.520;150.798;2022-08-21T15:05:18;3.22;;;1.50;;
63398;SDS011;49533;-34.520;150.798;2022-08-21T15:07:45;2.92;;;1.63;;
63398;SDS011;49533;-34.520;150.798;2022-08-21T15:10:12;2.50;;;1.83;;
63398;SDS011;49533;-34.520;150.798;2022-08-21T15:12:40;3.35;;;1.80;;
63398;SDS011;49533;-34.520;150.798;2022-08-21T15:15:07;2.03;;;1.55;;
63398;SDS011;49533;-34.520;150.798;2022-08-21T15:17:35;2.58;;;1.70;;
63398;SDS011;49533;-34.520;150.798;2022-08-21T15:20:02;3.28;;;1.80;;
63398;SDS011;49533;-34.520;150.798;2022-08-21T15:22:31;3.13;;;1.30;;
63398;SDS011;49533;-34.520;150.798;2022-08-21T15:24:59;2.22;;;1.50;;
63398;SDS011;49533;-34.520;150.798;2022-08-21T15:27:27;2.15;;;1.25;;
63398;SDS011;49533;-34.520;150.798;2022-08-21T15:29:55;1.85;;;1.42;;
63398;SDS011;49533;-34.520;150.798;2022-08-21T15:32:24;1.58;;;1.48;;
63398;SDS011;49533;-34.520;150.798;2022-08-21T15:34:53;3.72;;;1.90;;
63398;SDS011;49533;-34.520;150.798;2022-08-21T15:37:22;2.42;;;1.80;;
63398;SDS011;49533;-34.520;150.798;2022-08-21T15:39:50;2.05;;;1.67;;
63398;SDS011;49533;-34.520;150.798;2022-08-21T15:42:18;5.20;;;1.80;;
63398;SDS011;49533;-34.520;150.798;2022-08-21T15:44:46;6.10;;;1.75;;
63398;SDS011;49533;-34.520;150.798;2022-08-21T15:47:24;2.88;;;1.77;;
63398;SDS011;49533;-34.520;150.798;2022-08-21T15:49:55;1.98;;;1.88;;
63398;SDS011;49533;-34.520;150.798;2022-08-21T15:52:22;3.72;;;2.20;;
63398;SDS011;49533;-34.520;150.798;2022-08-21T15:54:50;2.90;;;1.50;;
63398;SDS011;49533;-34.520;150.798;2022-08-21T15:57:18;2.08;;;1.50;;
63398;SDS011;49533;-34.520;150.798;2022-08-21T15:59:53;1.50;;;1.30;;
63398;SDS011;49533;-34.520;150.798;2022-08-21T16:02:24;2.20;;;1.80;;